Time;durP1;ratioP1;P1;durP2;ratioP2;P2;SDS_P1;SDS_P2;PMS_P1;PMS_P2;Temp;Humidity;BMP_temperature;BMP_pressure;BME280_temperature;BME280_humidity;BME280_pressure;Samples;Min_cycle;Max_cycle;Signal;HPM_P1;HPM_P2
2021/09/01 00:01:09;;;;;;;18.05;10.82;;;;;;;13.42;84.13;100507.77;2139811;82;27618;-62
2021/09/01 00:04:10;;;;;;;13.35;9.60;;;;;;;13.40;84.18;100516.44;2127599;83;29034;-61
2021/09/01 00:07:12;;;;;;;18.55;9.60;;;;;;;13.40;84.24;100523.16;2127899;83;31402;-62
2021/09/01 00:10:14;;;;;;;14.28;9.35;;;;;;;13.38;84.18;100526.39;2129949;83;33373;-63
2021/09/01 00:13:17;;;;;;;11.80;8.88;;;;;;;13.36;84.09;100535.02;2129636;83;29405;-62
2021/09/01 00:16:28;;;;;;;14.58;8.70;;;;;;;13.33;84.09;100525.28;2129851;83;27689;-62
2021/09/01 00:19:29;;;;;;;17.10;9.53;;;;;;;13.33;84.17;100524.42;2129813;83;29010;-62
2021/09/01 00:22:31;;;;;;;16.00;8.93;;;;;;;13.31;84.14;100532.60;2129768;83;32467;-62
2021/09/01 00:25:33;;;;;;;17.85;10.28;;;;;;;13.28;84.01;100527.84;2130076;83;33361;-62
2021/09/01 00:28:34;;;;;;;13.43;9.18;;;;;;;13.26;84.10;100535.14;2130312;83;29533;-61
2021/09/01 00:31:36;;;;;;;15.93;9.60;;;;;;;13.25;84.11;100542.36;2129870;83;27706;-63
2021/09/01 00:34:38;;;;;;;15.15;9.30;;;;;;;13.24;83.96;100550.53;2129729;83;29913;-61
2021/09/01 00:37:41;;;;;;;13.70;8.58;;;;;;;13.23;84.06;100561.75;2129637;83;31060;-62
2021/09/01 00:40:43;;;;;;;13.43;8.85;;;;;;;13.21;84.06;100565.89;2129736;83;34230;-61
2021/09/01 00:43:46;;;;;;;14.73;9.05;;;;;;;13.20;84.12;100567.30;2129897;83;29378;-60
2021/09/01 00:46:49;;;;;;;11.83;8.55;;;;;;;13.20;84.09;100569.98;2129753;83;27693;-61
2021/09/01 00:49:51;;;;;;;16.07;9.18;;;;;;;13.20;84.04;100571.33;2129889;83;29253;-61
2021/09/01 00:52:54;;;;;;;16.32;9.25;;;;;;;13.19;84.04;100562.87;2130034;83;31867;-61
2021/09/01 00:55:56;;;;;;;16.97;8.98;;;;;;;13.17;84.01;100572.39;2129958;83;34085;-61
2021/09/01 00:58:58;;;;;;;17.45;9.78;;;;;;;13.19;84.17;100571.83;2129994;83;29811;-61
2021/09/01 01:02:01;;;;;;;15.55;8.90;;;;;;;13.18;84.05;100575.93;2130213;83;27694;-61
2021/09/01 01:05:04;;;;;;;14.55;9.33;;;;;;;13.16;84.00;100576.48;2130466;83;29069;-61
2021/09/01 01:08:06;;;;;;;11.57;8.93;;;;;;;13.16;84.11;100581.41;2129869;83;31007;-61
2021/09/01 01:11:12;;;;;;;13.83;9.10;;;;;;;13.17;84.06;100591.67;2129753;83;34000;-61
2021/09/01 01:14:17;;;;;;;12.43;8.93;;;;;;;13.18;84.12;100597.45;2129956;83;29247;-61
2021/09/01 01:17:20;;;;;;;13.83;9.60;;;;;;;13.19;84.17;100595.16;2130295;83;36728;-61
2021/09/01 01:20:22;;;;;;;15.38;9.60;;;;;;;13.17;84.20;100596.59;2129981;83;29467;-61
2021/09/01 01:23:26;;;;;;;11.75;8.45;;;;;;;13.20;84.26;100594.20;2129771;83;31450;-61
2021/09/01 01:26:30;;;;;;;13.10;8.95;;;;;;;13.21;84.27;100595.48;2129875;83;34263;-61
2021/09/01 01:29:31;;;;;;;16.35;8.30;;;;;;;13.24;84.20;100594.92;2129913;83;30492;-61
2021/09/01 01:32:32;;;;;;;14.05;8.70;;;;;;;13.24;84.14;100593.08;2130700;83;27582;-62
2021/09/01 01:35:41;;;;;;;15.25;9.65;;;;;;;13.25;84.07;100603.35;2129895;83;28581;-61
2021/09/01 01:38:43;;;;;;;19.25;9.05;;;;;;;13.24;84.08;100608.38;2130166;83;31015;-61
2021/09/01 01:41:44;;;;;;;14.10;8.50;;;;;;;13.26;84.25;100603.29;2130240;83;32891;-61
2021/09/01 01:44:46;;;;;;;15.28;9.05;;;;;;;13.27;84.17;100613.09;2129789;83;30198;-61
2021/09/01 01:47:48;;;;;;;14.55;8.93;;;;;;;13.24;83.89;100611.91;2130661;83;27675;-61
2021/09/01 01:50:49;;;;;;;14.95;8.85;;;;;;;13.26;84.13;100617.20;2130342;83;29287;-61
2021/09/01 01:53:50;;;;;;;13.38;8.18;;;;;;;13.28;84.18;100619.33;2130085;83;31392;-61
2021/09/01 01:56:52;;;;;;;13.53;8.65;;;;;;;13.30;84.12;100614.28;2129902;83;34180;-62
2021/09/01 01:59:54;;;;;;;12.60;8.55;;;;;;;13.32;84.11;100611.48;2129918;83;30664;-62
2021/09/01 02:02:57;;;;;;;15.45;8.53;;;;;;;13.34;84.10;100610.92;2130008;83;27733;-62
2021/09/01 02:05:58;;;;;;;14.60;8.00;;;;;;;13.32;83.99;100610.14;2130243;83;28663;-62
2021/09/01 02:08:59;;;;;;;12.58;8.73;;;;;;;13.34;83.99;100620.34;2129963;83;30344;-61
2021/09/01 02:12:01;;;;;;;9.70;7.58;;;;;;;13.33;84.00;100617.27;2130072;83;33385;-62
2021/09/01 02:15:05;;;;;;;13.70;8.38;;;;;;;13.34;83.95;100628.41;2130163;83;29692;-61
2021/09/01 02:18:07;;;;;;;15.88;8.70;;;;;;;13.32;83.83;100631.66;2130341;83;27650;-61
2021/09/01 02:21:08;;;;;;;13.78;8.60;;;;;;;13.32;84.00;100635.21;2130349;83;29263;-62
2021/09/01 02:24:09;;;;;;;15.25;8.35;;;;;;;13.34;83.99;100624.38;2129785;83;32444;-62
2021/09/01 02:27:11;;;;;;;12.18;8.23;;;;;;;13.35;83.93;100631.01;2130137;83;33221;-61
2021/09/01 02:30:13;;;;;;;13.68;9.05;;;;;;;13.34;83.90;100635.14;2129868;83;29371;-62
2021/09/01 02:33:15;;;;;;;16.12;9.40;;;;;;;13.31;83.80;100636.20;2130100;83;28264;-62
2021/09/01 02:36:18;;;;;;;15.23;8.43;;;;;;;13.28;83.71;100635.02;2130316;83;28690;-62
2021/09/01 02:39:19;;;;;;;13.95;9.38;;;;;;;13.25;83.67;100641.91;2130190;83;32294;-62
2021/09/01 02:42:23;;;;;;;12.68;8.53;;;;;;;13.22;83.69;100631.30;2129848;83;32906;-61
2021/09/01 02:45:25;;;;;;;12.98;9.08;;;;;;;13.21;83.61;100629.57;2130230;83;29344;-60
2021/09/01 02:48:26;;;;;;;15.10;8.53;;;;;;;13.19;83.64;100633.70;2130274;83;27676;-60
2021/09/01 02:51:28;;;;;;;15.70;8.40;;;;;;;13.20;83.52;100637.25;2130209;83;29060;-62
2021/09/01 02:54:30;;;;;;;16.23;9.55;;;;;;;13.18;83.68;100644.53;2130281;83;31949;-61
2021/09/01 02:57:31;;;;;;;15.28;9.58;;;;;;;13.18;83.70;100644.07;2130156;83;33352;-61
2021/09/01 03:00:33;;;;;;;17.07;7.35;;;;;;;13.17;83.60;100642.79;2130083;83;29927;-61
2021/09/01 03:03:35;;;;;;;14.73;8.48;;;;;;;13.15;83.63;100633.47;2130265;83;27697;-61
2021/09/01 03:06:36;;;;;;;13.58;8.05;;;;;;;13.14;83.59;100639.80;2129854;83;29178;-61
2021/09/01 03:09:38;;;;;;;16.27;9.95;;;;;;;13.14;83.59;100645.67;2128262;82;32385;-61
2021/09/01 03:12:40;;;;;;;15.05;8.75;;;;;;;13.12;83.57;100640.36;2127394;83;33897;-61
2021/09/01 03:15:41;;;;;;;17.15;9.93;;;;;;;13.10;83.55;100643.61;2127624;83;29254;-60
2021/09/01 03:18:43;;;;;;;12.78;9.18;;;;;;;13.09;83.55;100648.59;2127702;83;27672;-61
2021/09/01 03:21:44;;;;;;;13.18;9.15;;;;;;;13.06;83.50;100649.64;2140088;83;29653;-61
2021/09/01 03:24:45;;;;;;;12.30;8.73;;;;;;;13.06;83.56;100652.33;2127309;83;32322;-61
2021/09/01 03:27:47;;;;;;;14.85;8.58;;;;;;;13.06;83.64;100654.16;2127503;83;33947;-61
2021/09/01 03:30:48;;;;;;;15.03;9.93;;;;;;;13.09;83.71;100666.08;2139758;83;29778;-60
2021/09/01 03:33:50;;;;;;;12.88;8.58;;;;;;;13.07;83.61;100659.94;2140112;83;28135;-61
2021/09/01 03:36:52;;;;;;;18.45;9.80;;;;;;;13.07;83.72;100670.20;2139679;83;29917;-61
2021/09/01 03:39:54;;;;;;;17.32;9.68;;;;;;;13.07;83.56;100669.35;2127406;83;31710;-61
2021/09/01 03:42:56;;;;;;;15.72;9.45;;;;;;;13.07;83.72;100666.66;2139659;83;32931;-61
2021/09/01 03:45:59;;;;;;;14.25;9.60;;;;;;;13.06;83.61;100670.30;2127529;83;27614;-61
2021/09/01 03:49:01;;;;;;;20.85;10.00;;;;;;;13.07;83.69;100667.52;2127600;83;27659;-61
2021/09/01 03:52:04;;;;;;;16.05;10.43;;;;;;;13.05;83.60;100669.91;2127637;83;29918;-60
2021/09/01 03:55:09;;;;;;;14.65;9.48;;;;;;;13.06;83.72;100663.58;2127518;83;31871;-61
2021/09/01 03:58:12;;;;;;;20.65;10.82;;;;;;;13.05;83.63;100671.25;2127681;83;36804;-61
2021/09/01 04:01:14;;;;;;;17.70;9.68;;;;;;;13.02;83.62;100676.79;2127350;83;29967;-61
2021/09/01 04:04:17;;;;;;;12.98;9.93;;;;;;;13.02;83.64;100676.79;2127334;83;27710;-61
2021/09/01 04:07:18;;;;;;;14.58;9.93;;;;;;;13.01;83.70;100682.62;2127285;83;29385;-61
2021/09/01 04:10:20;;;;;;;18.67;9.90;;;;;;;13.02;83.76;100683.02;2128953;83;32456;-61
2021/09/01 04:13:22;;;;;;;16.05;10.63;;;;;;;13.03;83.75;100685.26;2129639;83;33410;-61
2021/09/01 04:16:24;;;;;;;20.65;10.25;;;;;;;13.04;83.81;100682.47;2130457;83;29892;-60
2021/09/01 04:19:25;;;;;;;14.28;10.13;;;;;;;13.07;83.99;100693.07;2129910;83;27738;-61
2021/09/01 04:22:27;;;;;;;15.40;10.23;;;;;;;13.09;83.79;100698.36;2129844;83;29966;-60
2021/09/01 04:25:29;;;;;;;12.25;9.55;;;;;;;13.12;83.86;100696.00;2130214;83;30783;-61
2021/09/01 04:28:31;;;;;;;18.60;11.57;;;;;;;13.15;83.93;100699.88;2130174;83;33115;-61
2021/09/01 04:31:33;;;;;;;16.87;10.53;;;;;;;13.16;83.86;100709.65;2130234;83;29368;-61
2021/09/01 04:34:34;;;;;;;18.25;10.60;;;;;;;13.18;83.84;100707.29;2130184;83;27689;-60
2021/09/01 04:37:36;;;;;;;14.70;10.58;;;;;;;13.20;83.82;100706.73;2130468;83;29053;-60
2021/09/01 04:40:38;;;;;;;19.05;10.78;;;;;;;13.24;83.85;100706.58;2129800;83;32489;-61
2021/09/01 04:43:40;;;;;;;17.77;11.00;;;;;;;13.25;83.56;100710.52;2129760;83;32788;-61
2021/09/01 04:46:42;;;;;;;17.20;11.60;;;;;;;13.27;83.73;100706.38;2130191;83;29163;-61
2021/09/01 04:49:44;;;;;;;15.30;10.40;;;;;;;13.31;83.79;100718.27;2130214;83;27602;-61
2021/09/01 04:52:45;;;;;;;18.10;10.60;;;;;;;13.36;83.75;100713.97;2130103;83;29858;-60
2021/09/01 04:55:47;;;;;;;16.15;11.35;;;;;;;13.38;83.57;100716.11;2130063;83;31402;-61
2021/09/01 04:58:49;;;;;;;13.72;11.05;;;;;;;13.41;83.57;100717.78;2129940;83;33840;-61
2021/09/01 05:01:51;;;;;;;16.45;11.53;;;;;;;13.44;83.59;100719.81;2129873;83;29787;-60
2021/09/01 05:04:52;;;;;;;15.32;10.68;;;;;;;13.46;83.50;100713.88;2130632;83;28189;-60
2021/09/01 05:07:54;;;;;;;18.48;11.20;;;;;;;13.58;83.75;100715.48;2130322;83;28818;-60
2021/09/01 05:10:55;;;;;;;13.90;10.05;;;;;;;13.69;83.64;100727.89;2129918;83;32220;-59
2021/09/01 05:13:57;;;;;;;16.25;11.00;;;;;;;13.80;83.63;100728.64;2130138;83;33094;-61
2021/09/01 05:16:59;;;;;;;18.10;10.72;;;;;;;13.94;83.56;100724.69;2130224;83;29147;-60
2021/09/01 05:20:01;;;;;;;12.33;9.98;;;;;;;14.04;83.22;100722.80;2130342;83;27673;-59
2021/09/01 05:23:03;;;;;;;18.67;10.72;;;;;;;14.07;83.15;100720.78;2129963;83;29894;-60
2021/09/01 05:26:06;;;;;;;13.32;9.73;;;;;;;14.07;82.92;100738.80;2130264;83;31852;-59
2021/09/01 05:29:08;;;;;;;16.35;10.40;;;;;;;14.08;82.89;100735.14;2130109;83;34132;-60
2021/09/01 05:32:26;;;;;;;20.25;9.95;;;;;;;14.08;82.97;100737.34;2129975;83;29376;-60
2021/09/01 05:35:30;;;;;;;17.10;10.15;;;;;;;14.06;82.81;100740.63;2130001;83;27709;-60
2021/09/01 05:38:35;;;;;;;16.52;10.98;;;;;;;14.07;82.86;100745.03;2129865;83;28574;-60
2021/09/01 05:41:38;;;;;;;15.58;11.15;;;;;;;14.07;82.73;100744.18;2130246;83;31211;-59
2021/09/01 05:44:40;;;;;;;14.78;10.32;;;;;;;14.10;82.76;100740.83;2130338;83;33136;-61
2021/09/01 05:47:44;;;;;;;16.42;10.32;;;;;;;14.16;82.60;100749.03;2130171;83;30142;-60
2021/09/01 05:50:55;;;;;;;15.03;10.35;;;;;;;14.22;82.77;100745.14;2130389;83;27717;-60
2021/09/01 05:53:57;;;;;;;11.75;9.45;;;;;;;14.26;82.67;100755.64;2130071;83;29415;-60
2021/09/01 05:57:12;;;;;;;17.75;9.68;;;;;;;14.30;82.47;100753.62;2130105;83;32201;-60
2021/09/01 06:00:16;;;;;;;16.32;9.30;;;;;;;14.36;82.72;100749.70;2130112;83;32986;-60
2021/09/01 06:03:33;;;;;;;13.15;9.88;;;;;;;14.46;82.66;100759.01;2130370;83;36838;-60
2021/09/01 06:06:38;;;;;;;18.85;10.60;;;;;;;14.50;82.19;100762.38;2130327;83;27697;-60
2021/09/01 06:09:43;;;;;;;15.63;9.48;;;;;;;14.58;82.26;100756.05;2130002;82;28661;-59
2021/09/01 06:12:47;;;;;;;14.18;9.30;;;;;;;14.60;81.87;100762.22;2129745;83;31932;-59
2021/09/01 06:15:48;;;;;;;14.93;8.45;;;;;;;14.64;81.95;100763.78;2130160;83;34252;-59
2021/09/01 06:18:50;;;;;;;14.40;8.75;;;;;;;14.76;81.85;100758.64;2129904;83;30220;-60
2021/09/01 06:21:52;;;;;;;15.13;10.25;;;;;;;15.00;81.68;100757.63;2130022;83;27718;-60
2021/09/01 06:24:54;;;;;;;14.73;9.58;;;;;;;15.51;81.36;100770.71;2129931;83;28876;-61
2021/09/01 06:27:56;;;;;;;19.98;10.13;;;;;;;15.51;81.36;100770.71;2130106;83;31426;-61
2021/09/01 06:34:22;;;;;;;13.68;9.85;;;;;;;16.13;81.19;100764.59;2130214;83;30051;-61
2021/09/01 06:37:23;;;;;;;13.88;9.53;;;;;;;16.42;80.82;100773.45;2130325;83;27639;-59
2021/09/01 06:40:26;;;;;;;13.38;9.33;;;;;;;16.75;80.08;100767.23;2130458;83;29276;-60
2021/09/01 06:43:28;;;;;;;18.30;9.20;;;;;;;16.98;80.15;100771.95;2130169;83;31640;-59
2021/09/01 06:46:30;;;;;;;11.70;7.65;;;;;;;17.32;79.87;100764.67;2129896;83;33025;-60
2021/09/01 06:49:31;;;;;;;10.95;7.40;;;;;;;17.38;78.82;100756.59;2130395;83;29704;-59
2021/09/01 06:52:34;;;;;;;15.35;8.08;;;;;;;17.38;78.46;100768.78;2130283;83;27582;-60
2021/09/01 06:55:37;;;;;;;11.20;7.67;;;;;;;17.51;78.06;100771.50;2129860;83;28861;-59
2021/09/01 06:58:38;;;;;;;8.18;6.78;;;;;;;17.61;78.00;100773.91;2129805;83;31415;-59
2021/09/01 07:01:40;;;;;;;8.88;6.25;;;;;;;17.63;77.12;100777.38;2130148;83;33347;-60
2021/09/01 07:04:42;;;;;;;14.45;7.08;;;;;;;17.55;76.49;100783.34;2130186;83;29170;-61
2021/09/01 07:07:44;;;;;;;11.68;7.12;;;;;;;17.54;76.70;100779.41;2130087;83;27699;-59
2021/09/01 07:10:46;;;;;;;11.40;6.80;;;;;;;17.92;77.12;100778.45;2130101;83;29052;-60
2021/09/01 07:13:48;;;;;;;12.13;6.97;;;;;;;18.12;76.52;100792.44;2129815;83;31901;-60
2021/09/01 07:16:50;;;;;;;10.88;7.03;;;;;;;18.26;76.51;100794.98;2130227;83;33306;-60
2021/09/01 07:19:52;;;;;;;10.20;7.42;;;;;;;18.56;75.80;100800.45;2129868;83;29391;-60
2021/09/01 07:22:54;;;;;;;9.60;7.33;;;;;;;18.78;75.38;100801.03;2129825;83;27630;-60
2021/09/01 07:25:56;;;;;;;8.05;6.62;;;;;;;19.01;74.85;100803.02;2129707;83;30035;-60
2021/09/01 07:28:58;;;;;;;9.25;6.42;;;;;;;19.17;73.52;100804.92;2130165;83;32202;-61
2021/09/01 07:31:59;;;;;;;16.57;6.55;;;;;;;19.57;73.70;100799.03;2129889;83;33099;-60
2021/09/01 07:35:10;;;;;;;9.10;6.60;;;;;;;20.24;73.06;100793.72;2126499;83;29577;-61
2021/09/01 07:38:11;;;;;;;9.63;6.08;;;;;;;20.72;72.22;100793.80;2117019;83;27622;-61
2021/09/01 07:41:13;;;;;;;7.83;6.00;;;;;;;20.74;70.47;100799.97;2077344;85;29369;-61
2021/09/01 07:44:16;;;;;;;10.93;6.30;;;;;;;20.79;70.78;100799.61;2110942;84;32367;-60
2021/09/01 07:47:18;;;;;;;7.97;6.10;;;;;;;20.80;70.22;100794.53;2067154;85;33028;-61
2021/09/01 07:50:24;;;;;;;8.25;5.83;;;;;;;20.80;68.86;100798.62;2109731;84;29375;-60
2021/09/01 07:53:26;;;;;;;8.50;6.42;;;;;;;20.84;69.30;100800.61;2110395;84;27654;-62
2021/09/01 07:56:29;;;;;;;7.17;5.83;;;;;;;20.79;68.71;100805.05;2109746;84;29877;-62
2021/09/01 07:59:30;;;;;;;7.65;5.75;;;;;;;20.69;68.42;100809.53;2110346;83;31072;-61
2021/09/01 08:02:32;;;;;;;7.30;5.25;;;;;;;21.24;68.15;100806.20;2064237;85;33410;-61
2021/09/01 08:05:34;;;;;;;6.85;5.28;;;;;;;21.72;67.32;100803.03;2104992;84;30598;-61
2021/09/01 08:08:37;;;;;;;8.10;5.25;;;;;;;22.03;67.09;100798.91;2110223;84;27699;-61
2021/09/01 08:11:40;;;;;;;6.95;5.78;;;;;;;22.12;64.73;100803.03;2111169;83;29091;-60
2021/09/01 08:14:41;;;;;;;9.20;5.47;;;;;;;22.42;65.96;100804.50;2110796;83;32340;-61
2021/09/01 08:17:43;;;;;;;8.15;5.20;;;;;;;22.50;65.73;100807.89;2110507;83;34409;-60
2021/09/01 08:20:45;;;;;;;8.23;5.60;;;;;;;22.23;64.24;100810.25;2069996;85;30462;-62
2021/09/01 08:23:47;;;;;;;8.43;5.87;;;;;;;21.85;64.44;100811.36;2048088;86;27866;-62
2021/09/01 08:26:51;;;;;;;7.87;5.05;;;;;;;21.45;64.46;100815.36;2036764;86;29696;-62
2021/09/01 08:29:53;;;;;;;8.60;5.47;;;;;;;21.36;64.79;100825.20;2047799;85;31103;-60
2021/09/01 08:32:55;;;;;;;9.55;5.35;;;;;;;21.58;65.09;100822.81;2071296;83;33586;-60
2021/09/01 08:35:56;;;;;;;7.78;5.62;;;;;;;21.99;64.49;100821.52;2120081;84;30715;-60
2021/09/01 08:38:58;;;;;;;8.88;5.05;;;;;;;22.20;63.84;100825.53;2092210;85;27682;-60
2021/09/01 08:42:01;;;;;;;6.60;5.08;;;;;;;22.17;62.24;100829.93;2133232;83;29472;-61
2021/09/01 08:45:04;;;;;;;6.22;4.95;;;;;;;22.26;62.85;100828.20;2133002;83;32304;-60
2021/09/01 08:48:08;;;;;;;6.78;5.22;;;;;;;22.52;62.62;100829.09;2092514;85;33496;-63
2021/09/01 09:31:01;;;;;;;6.90;5.50;;;;;;;21.95;58.86;100840.52;1607987;105;27827;-60
2021/09/01 09:34:15;;;;;;;6.90;5.47;;;;;;;21.89;58.66;100831.55;1702948;96;33761;-61
2021/09/01 09:37:18;;;;;;;6.78;5.30;;;;;;;21.94;58.61;100838.31;1865976;86;29407;-62
2021/09/01 09:40:28;;;;;;;10.88;6.80;;;;;;;21.85;58.56;100841.36;2100425;84;27715;-60
2021/09/01 09:43:32;;;;;;;9.23;4.78;;;;;;;21.74;58.56;100841.94;2100497;84;28618;-61
2021/09/01 09:46:47;;;;;;;7.05;4.67;;;;;;;21.55;58.15;100848.50;2100549;84;31105;-66
2021/09/01 09:49:51;;;;;;;5.85;4.62;;;;;;;21.32;57.72;100846.42;2100494;84;32981;-60
2021/09/01 09:52:53;;;;;;;7.67;5.22;;;;;;;21.13;57.79;100850.36;2073089;84;28707;-61
2021/09/01 09:56:28;;;;;;;6.05;4.45;;;;;;;21.16;57.84;100850.09;2100388;84;28344;-60
2021/09/01 09:59:33;;;;;;;5.72;4.17;;;;;;;21.13;57.20;100855.29;2100681;84;33182;-61
2021/09/01 10:02:35;;;;;;;;;;;;;;;21.03;57.34;100859.81;2103290;84;31148;-60
2021/09/01 10:05:38;;;;;;;6.45;5.03;;;;;;;20.91;58.18;100866.67;2078772;84;33020;-60
2021/09/01 10:08:41;;;;;;;9.00;4.97;;;;;;;20.81;57.35;100858.89;2100323;84;30546;-60
2021/09/01 10:11:47;;;;;;;5.28;4.20;;;;;;;20.70;57.62;100865.72;2100372;84;27837;-60
2021/09/01 10:14:50;;;;;;;10.78;5.50;;;;;;;20.69;58.58;100868.07;2100597;84;28649;-62
2021/09/01 10:17:56;;;;;;;9.48;4.80;;;;;;;20.83;58.60;100862.36;2100587;84;31195;-62
2021/09/01 10:20:59;;;;;;;7.95;4.67;;;;;;;20.91;56.71;100863.07;2100731;84;32798;-62
2021/09/01 10:24:35;;;;;;;6.30;4.58;;;;;;;20.87;56.37;100858.88;2100406;84;29775;-62
2021/09/01 10:27:38;;;;;;;13.65;6.30;;;;;;;20.84;57.12;100853.71;2100676;84;27845;-61
2021/09/01 10:30:45;;;;;;;8.98;4.72;;;;;;;20.98;58.06;100857.48;2100293;84;29698;-61
2021/09/01 10:33:51;;;;;;;7.50;4.60;;;;;;;21.10;58.11;100863.72;2091619;84;31027;-61
2021/09/01 10:36:54;;;;;;;7.92;4.30;;;;;;;21.12;57.62;100854.92;2094539;85;33246;-62
2021/09/01 10:39:56;;;;;;;5.85;3.85;;;;;;;21.22;56.91;100863.17;2094091;85;29402;-61
2021/09/01 10:43:04;;;;;;;8.35;4.80;;;;;;;21.23;57.15;100860.81;2094307;85;28088;-61
2021/09/01 10:46:04;;;;;;;5.97;3.75;;;;;;;21.20;56.74;100857.87;2093778;85;28657;-61
2021/09/01 10:49:06;;;;;;;6.62;4.05;;;;;;;21.28;57.51;100866.75;2094188;85;32217;-61
2021/09/01 10:52:08;;;;;;;5.85;4.10;;;;;;;21.44;57.40;100847.19;2094278;85;33083;-61
2021/09/01 10:55:12;;;;;;;4.95;4.10;;;;;;;21.60;57.09;100844.48;2094208;85;29966;-61
2021/09/01 10:58:21;;;;;;;8.00;4.40;;;;;;;21.73;56.84;100853.84;2094790;85;27789;-63
2021/09/01 11:01:24;;;;;;;6.55;3.92;;;;;;;21.86;55.68;100853.12;2094199;85;28729;-61
2021/09/01 11:04:26;;;;;;;4.50;3.77;;;;;;;21.87;55.83;100858.09;2094041;85;31819;-61
2021/09/01 11:07:31;;;;;;;7.03;3.72;;;;;;;21.80;54.74;100860.50;2094008;85;32972;-62
2021/09/01 11:10:33;;;;;;;6.70;3.90;;;;;;;21.75;56.01;100866.37;2094540;85;30101;-68
2021/09/01 11:13:42;;;;;;;4.42;3.60;;;;;;;21.81;55.41;100867.69;2094419;85;27695;-74
2021/09/01 11:16:51;;;;;;;4.97;3.50;;;;;;;21.78;55.99;100868.80;2093919;85;29536;-60
2021/09/01 11:20:01;;;;;;;5.85;3.67;;;;;;;21.71;55.33;100877.17;2094384;85;31128;-61
2021/09/01 11:23:04;;;;;;;4.95;3.92;;;;;;;21.59;54.61;100877.71;2094250;85;33372;-61
2021/09/01 11:26:07;;;;;;;9.38;4.08;;;;;;;21.58;54.62;100875.13;2094061;85;30038;-61
2021/09/01 11:29:11;;;;;;;4.97;3.90;;;;;;;21.55;55.05;100883.94;2064690;85;27791;-61
2021/09/01 11:32:18;;;;;;;5.57;4.07;;;;;;;21.55;55.38;100871.67;2094627;85;28662;-61
2021/09/01 11:35:24;;;;;;;5.72;3.85;;;;;;;21.49;54.59;100887.19;2091647;84;31706;-61
2021/09/01 11:38:26;;;;;;;5.50;3.58;;;;;;;21.32;53.61;100887.30;2091623;85;33038;-61
2021/09/01 11:41:28;;;;;;;4.92;3.77;;;;;;;21.19;54.57;100883.39;2092147;85;29341;-60
2021/09/01 11:44:31;;;;;;;4.28;3.50;;;;;;;21.15;54.69;100894.17;2091918;85;28165;-61
2021/09/01 11:47:44;;;;;;;6.78;3.40;;;;;;;21.06;54.34;100884.92;2103785;84;33136;-61
2021/09/01 11:50:50;;;;;;;5.20;3.92;;;;;;;20.87;53.39;100886.10;2091871;85;31968;-61
2021/09/01 11:53:53;;;;;;;5.58;3.50;;;;;;;20.74;54.32;100892.55;2103925;84;33021;-61
2021/09/01 11:56:56;;;;;;;5.37;3.52;;;;;;;20.79;54.68;100888.11;2072358;84;29728;-61
2021/09/01 12:00:01;;;;;;;6.28;4.20;;;;;;;20.86;54.69;100897.51;2068227;85;27678;-61
2021/09/01 12:03:04;;;;;;;6.00;4.08;;;;;;;20.93;54.62;100895.98;2092056;85;28711;-61
2021/09/01 12:06:09;;;;;;;8.28;4.35;;;;;;;20.90;54.58;100895.38;2091647;85;31947;-61
2021/09/01 12:09:14;;;;;;;4.85;3.58;;;;;;;20.92;55.20;100901.09;2072538;84;33902;-62
2021/09/01 12:12:18;;;;;;;5.08;3.70;;;;;;;20.97;55.04;100902.06;2091979;85;29382;-61
2021/09/01 12:15:22;;;;;;;5.47;3.85;;;;;;;20.94;53.86;100901.80;2092031;85;28015;-61
2021/09/01 12:18:27;;;;;;;4.70;3.65;;;;;;;20.97;54.47;100906.14;2103821;84;33195;-61
2021/09/01 12:21:58;;;;;;;7.15;3.83;;;;;;;21.11;54.22;100898.14;2091664;85;31136;-61
2021/09/01 12:25:11;;;;;;;5.50;3.85;;;;;;;21.21;53.71;100885.97;2091834;85;33023;-61
2021/09/01 12:28:14;;;;;;;6.30;4.00;;;;;;;21.25;53.80;100898.34;2091887;85;28800;-61
2021/09/01 12:31:22;;;;;;;3.87;3.17;;;;;;;21.36;53.45;100900.16;2103989;84;27758;-62
2021/09/01 12:34:42;;;;;;;5.60;3.50;;;;;;;21.45;53.27;100898.50;2067499;84;28722;-61
2021/09/01 12:37:45;;;;;;;4.67;3.55;;;;;;;21.56;53.34;100903.88;2088041;85;31062;-63
2021/09/01 12:40:49;;;;;;;4.70;3.58;;;;;;;21.65;53.82;100897.67;2068316;85;33117;-62
2021/09/01 12:44:01;;;;;;;5.75;3.98;;;;;;;21.76;52.93;100899.43;2088020;85;30183;-60
2021/09/01 12:47:12;;;;;;;5.30;3.60;;;;;;;21.80;51.80;100906.35;2087653;85;27664;-61
2021/09/01 12:50:14;;;;;;;8.05;3.85;;;;;;;21.77;52.06;100899.80;2087872;85;28649;-61
2021/09/01 12:53:23;;;;;;;5.00;3.40;;;;;;;21.81;52.11;100903.99;2087891;85;31494;-61
2021/09/01 12:56:26;;;;;;;7.40;3.42;;;;;;;21.90;52.48;100893.28;2087505;85;33009;-60
2021/09/01 12:59:34;;;;;;;5.07;3.73;;;;;;;21.92;51.76;100889.41;2087815;85;29564;-60
2021/09/01 13:02:35;;;;;;;6.25;3.83;;;;;;;21.92;51.74;100891.29;2087725;85;28040;-60
2021/09/01 13:05:39;;;;;;;9.63;4.53;;;;;;;21.94;51.09;100898.33;2087774;85;28694;-61
2021/09/01 13:08:42;;;;;;;4.10;3.60;;;;;;;21.96;52.30;100898.17;2076955;85;31313;-61
2021/09/01 13:11:45;;;;;;;6.28;3.87;;;;;;;22.07;51.41;100906.30;2080219;85;34240;-60
2021/09/01 13:14:47;;;;;;;6.75;4.35;;;;;;;22.15;51.91;100905.61;2087591;85;30577;-61
2021/09/01 13:17:50;;;;;;;7.22;3.98;;;;;;;22.17;51.97;100904.98;2087994;85;27673;-60
2021/09/01 13:20:55;;;;;;;7.85;4.10;;;;;;;22.22;52.13;100901.83;2087676;85;28074;-61
2021/09/01 13:23:55;;;;;;;7.83;5.40;;;;;;;22.22;52.01;100901.31;2088086;85;31151;-60
2021/09/01 13:26:58;;;;;;;11.20;5.80;;;;;;;22.16;51.49;100895.06;2087840;85;34222;-61
2021/09/01 13:30:00;;;;;;;5.83;3.83;;;;;;;22.14;51.73;100899.27;2087735;85;30702;-60
2021/09/01 13:33:03;;;;;;;10.90;4.20;;;;;;;22.12;51.81;100887.63;2087897;85;27838;-60
2021/09/01 13:36:07;;;;;;;6.92;3.83;;;;;;;22.08;51.85;100900.33;2087599;84;29058;-61
2021/09/01 13:39:09;;;;;;;6.33;3.62;;;;;;;22.02;51.30;100904.47;2088193;85;31060;-60
2021/09/01 13:42:12;;;;;;;8.15;4.33;;;;;;;21.93;50.79;100897.08;2087653;85;34346;-60
2021/09/01 13:45:15;;;;;;;7.12;3.87;;;;;;;21.93;51.50;100892.98;2087703;85;29915;-61
2021/09/01 13:48:23;;;;;;;6.47;4.08;;;;;;;21.92;51.46;100898.11;2087909;85;27655;-62
2021/09/01 13:51:27;;;;;;;4.75;3.85;;;;;;;21.94;51.22;100891.98;2047660;85;28690;-60
2021/09/01 13:54:31;;;;;;;6.08;3.45;;;;;;;21.99;51.28;100893.34;2088118;85;31112;-60
2021/09/01 13:57:34;;;;;;;5.10;3.70;;;;;;;22.03;51.27;100899.38;2087853;85;37260;-60
2021/09/01 14:00:37;;;;;;;5.10;4.30;;;;;;;22.06;50.99;100903.20;2068495;85;30127;-60
2021/09/01 14:03:45;;;;;;;6.53;4.58;;;;;;;21.99;51.10;100891.97;2087746;85;27664;-60
2021/09/01 14:06:48;;;;;;;5.28;4.33;;;;;;;22.00;51.04;100890.09;2088048;85;28763;-60
2021/09/01 14:09:51;;;;;;;7.87;4.28;;;;;;;21.98;51.00;100888.88;2088098;85;31127;-60
2021/09/01 14:12:53;;;;;;;6.72;4.90;;;;;;;21.95;51.01;100895.09;2087647;85;34054;-61
2021/09/01 14:15:56;;;;;;;6.05;4.17;;;;;;;21.91;51.68;100883.59;2087614;85;30498;-60
2021/09/01 14:18:59;;;;;;;6.55;4.55;;;;;;;21.97;51.71;100884.91;2087725;85;27632;-60
2021/09/01 14:22:02;;;;;;;6.20;4.62;;;;;;;21.94;51.18;100884.69;2088093;85;28649;-60
2021/09/01 14:25:07;;;;;;;5.45;4.53;;;;;;;21.87;51.25;100884.85;2087970;85;31045;-60
2021/09/01 14:28:09;;;;;;;7.83;3.90;;;;;;;21.84;51.54;100882.42;2076731;85;32983;-60
2021/09/01 14:31:11;;;;;;;5.33;4.10;;;;;;;21.79;51.63;100886.89;2080852;85;30610;-62
2021/09/01 14:34:13;;;;;;;6.55;3.90;;;;;;;21.78;52.06;100882.95;2088989;83;27743;-61
2021/09/01 14:37:15;;;;;;;5.25;3.80;;;;;;;21.72;51.43;100879.39;2100503;84;28721;-60
2021/09/01 14:40:17;;;;;;;7.00;4.25;;;;;;;21.65;51.56;100884.03;2100481;84;31729;-60
2021/09/01 14:43:21;;;;;;;4.37;3.98;;;;;;;21.63;51.58;100879.69;2100462;84;33374;-61
2021/09/01 14:46:23;;;;;;;7.17;4.50;;;;;;;21.58;51.70;100873.77;2100776;84;29728;-61
2021/09/01 14:49:26;;;;;;;4.95;3.77;;;;;;;21.60;51.95;100874.47;2101154;84;27696;-60